SBPV/PVH METAR and TAF weather

Enter ICAO airport designator
Station Type Date Time Source
SBPV METAR 2020/12/06 01:00 UTC NOAA

SBPV 060100Z 29001KT 9999 FEW030 SCT067 27/24 Q1012


Station Type Date Time Source
SBPV Decoded METAR 2020/12/06 01:00 UTC NOAA

Porto Velho Aeroporto , Brazil (SBPV) 08-46S 063-55W 102M
Dec 05, 2020 - 08:00 PM EST / 2020.12.06 0100 UTC
Wind: from the WNW (290 degrees) at 1 MPH (1 KT):0
Visibility: greater than 7 mile(s):0
Sky conditions: partly cloudy
Temperature: 80 F (27 C)
Dew Point: 75 F (24 C)
Relative Humidity: 83%
Pressure (altimeter): 29.88 in. Hg (1012 hPa)
ob: SBPV 060100Z 29001KT 9999 FEW030 SCT067 27/24 Q1012
cycle: 1

Station Type Date Time Source
SBPV TAF 2020/12/05 18:57 UTC NOAA

TAF SBPV 051500Z 0518/0618 01015KT 8000 TS BKN025 FEW040CB TN24/0610Z TX32/0617Z
TEMPO 0518/0522 30015KT 4000 TSRA BKN015 FEW030CB
BECMG 0601/0603 01010KT NSW SCT017 FEW040TCU
BECMG 0604/0606 07010KT SCT012
TEMPO 0606/0612 SCT006
BECMG 0612/0614 04010KT 9999 SCT020 FEW040TCU
BECMG 0616/0618 01015KT 8000 TS BKN025 FEW040CB
RMK PGS

Example: see airport list